Terminal Aerodrome Forecast
Issued by NWS Melbourne, FL

Home | Current Version | Previous Version | Text Only | Print | Product List | Glossary On
Versions: 1 2 3 4 5 6 7 8 9 10 11 12 13 14 15 16 17
000
FTUS42 KMLB 231725
TAFDAB
TAF
KDAB 231725Z 2318/2418 26008KT P6SM VCSH SCT025 BKN080 BKN250
     FM232200 VRB05KT P6SM VCSH SCT040 BKN100
     FM240200 VRB02KT P6SM FEW040 BKN200
     FM241400 21006KT P6SM SCT025 SCT250=

USA.gov is the U.S. government's official web portal to all federal, state and local government web resources and services.